OEBA/ABT METAR and TAF weather

Enter ICAO airport designator
Station Type Date Time Source
OEBA METAR 2022/06/28 23:00 UTC NOAA

OEBA 282300Z 27006KT CAVOK 28/13 Q1016 NOSIG


Station Type Date Time Source
OEBA Decoded METAR 2022/06/28 23:00 UTC NOAA

Al Baha, Saudi Arabia (OEBA) 20-18N 041-38E 1662M
Jun 28, 2022 - 07:00 PM EDT / 2022.06.28 2300 UTC
Wind: from the W (270 degrees) at 7 MPH (6 KT):0
Visibility: greater than 7 mile(s):0
Temperature: 82 F (28 C)
Dew Point: 55 F (13 C)
Relative Humidity: 39%
Pressure (altimeter): 30.00 in. Hg (1016 hPa)
ob: OEBA 282300Z 27006KT CAVOK 28/13 Q1016 NOSIG
cycle: 23

Station Type Date Time Source
OEBA TAF 2022/06/28 12:18 UTC NOAA

TAF OEBA 281100Z 2812/2918 26012KT 8000 FEW030 PROB30
TEMPO 2812/2818 FEW025CB SCT030
BECMG 2818/2820 33018KT
BECMG 2908/2910 34016KT

Example: see airport list